createdAt,value
2022-09-04T00:01:08.138Z,5.22
2022-09-04T00:03:42.408Z,4.75
2022-09-04T00:06:15.562Z,4.75
2022-09-04T00:09:00.683Z,5.40
2022-09-04T00:11:42.124Z,5.25
2022-09-04T00:14:12.223Z,5.75
2022-09-04T00:16:43.868Z,5.78
2022-09-04T00:21:46.728Z,5.28
2022-09-04T00:24:18.434Z,5.78
2022-09-04T00:26:53.078Z,5.80
2022-09-04T00:29:27.253Z,5.82
2022-09-04T00:32:03.659Z,6.10
2022-09-04T00:34:42.462Z,6.63
2022-09-04T00:37:13.344Z,6.03
2022-09-04T00:39:46.599Z,6.38
2022-09-04T00:42:26.443Z,6.22
2022-09-04T00:45:09.846Z,6.63
2022-09-04T00:48:28.581Z,6.50
2022-09-04T00:51:18.542Z,6.70
2022-09-04T00:54:02.669Z,6.45
2022-09-04T00:57:10.191Z,6.80
2022-09-04T00:59:59.419Z,6.15
2022-09-04T01:02:33.928Z,6.25
2022-09-04T01:05:05.140Z,6.93
2022-09-04T01:07:47.090Z,6.18
2022-09-04T01:10:29.245Z,6.50
2022-09-04T01:13:06.791Z,6.53
2022-09-04T01:15:39.711Z,6.50
2022-09-04T01:18:10.348Z,6.65
2022-09-04T01:20:53.661Z,7.22
2022-09-04T01:23:42.947Z,7.25
2022-09-04T01:26:17.402Z,7.93
2022-09-04T01:28:54.721Z,10.00
2022-09-04T01:31:28.354Z,9.13
2022-09-04T01:34:19.979Z,9.88
2022-09-04T01:36:54.175Z,9.63
2022-09-04T01:39:24.921Z,8.52
2022-09-04T01:42:00.097Z,8.95
2022-09-04T01:44:28.310Z,8.23
2022-09-04T01:54:08.025Z,6.20
2022-09-04T01:57:57.234Z,6.60
2022-09-04T02:01:23.393Z,7.13
2022-09-04T02:04:55.134Z,7.00
2022-09-04T02:07:57.776Z,6.60
2022-09-04T02:11:27.756Z,6.90
2022-09-04T02:14:56.793Z,6.45
2022-09-04T02:18:21.824Z,6.25
2022-09-04T02:22:08.722Z,6.50
2022-09-04T02:25:08.637Z,6.00
2022-09-04T02:28:51.524Z,6.60
2022-09-04T02:31:53.814Z,6.97
2022-09-04T02:35:13.683Z,6.72
2022-09-04T02:38:19.321Z,7.70
2022-09-04T02:45:38.970Z,11.60
2022-09-04T02:54:01.547Z,15.07
2022-09-04T03:00:33.871Z,10.35
2022-09-04T03:04:12.092Z,8.77
2022-09-04T03:08:09.971Z,8.18
2022-09-04T03:11:47.101Z,8.07
2022-09-04T03:14:58.734Z,7.95
2022-09-04T03:21:35.948Z,8.52
2022-09-04T03:25:12.789Z,8.45
2022-09-04T03:33:07.968Z,6.75
2022-09-04T03:39:03.339Z,7.65
2022-09-04T03:41:56.356Z,7.30
2022-09-04T03:54:13.837Z,5.43
2022-09-04T04:01:40.569Z,6.22
2022-09-04T04:05:42.300Z,6.40
2022-09-04T04:09:37.814Z,7.10
2022-09-04T04:58:46.422Z,7.10
2022-09-04T05:01:47.489Z,6.78
2022-09-04T05:04:42.046Z,5.47
2022-09-04T05:08:06.329Z,7.20
2022-09-04T05:15:32.406Z,7.13
2022-09-04T05:18:53.215Z,7.57
2022-09-04T05:22:04.906Z,7.57
2022-09-04T05:25:39.016Z,7.93
2022-09-04T05:29:31.901Z,8.80
2022-09-04T05:32:59.333Z,9.00
2022-09-04T05:36:02.445Z,10.13
2022-09-04T05:39:24.172Z,8.57
2022-09-04T05:42:49.176Z,8.32
2022-09-04T05:46:06.249Z,7.78
2022-09-04T05:49:17.067Z,7.53
2022-09-04T05:52:35.726Z,7.43
2022-09-04T05:56:02.919Z,6.97
2022-09-04T06:00:26.051Z,7.47
2022-09-04T06:04:19.217Z,7.22
2022-09-04T06:11:42.917Z,8.77
2022-09-04T06:15:16.422Z,8.57
2022-09-04T06:19:11.209Z,8.63
2022-09-04T06:26:56.186Z,9.73
2022-09-04T06:33:59.380Z,10.00
2022-09-04T06:36:55.068Z,11.05
2022-09-04T06:40:24.833Z,10.70
2022-09-04T06:43:54.413Z,10.32
2022-09-04T06:47:22.165Z,10.98
2022-09-04T06:50:40.740Z,10.75
2022-09-04T06:54:24.060Z,10.57
2022-09-04T06:58:01.858Z,10.90
2022-09-04T07:00:55.072Z,10.35
2022-09-04T07:04:37.826Z,9.70
2022-09-04T07:07:44.834Z,8.95
2022-09-04T07:11:37.481Z,9.52
2022-09-04T07:17:53.536Z,8.13
2022-09-04T07:20:52.183Z,7.53
2022-09-04T07:24:20.389Z,9.00
2022-09-04T07:31:51.279Z,7.18
2022-09-04T07:34:41.731Z,7.70
2022-09-04T07:37:34.950Z,7.97
2022-09-04T07:40:30.978Z,6.72
2022-09-04T07:43:16.307Z,7.03
2022-09-04T07:49:33.628Z,5.20
2022-09-04T07:52:36.982Z,5.28
2022-09-04T07:55:57.840Z,5.28
2022-09-04T07:59:31.182Z,5.07
2022-09-04T08:02:57.157Z,5.10
2022-09-04T08:06:56.078Z,4.90
2022-09-04T08:12:25.579Z,4.90
2022-09-04T08:14:32.894Z,4.57
2022-09-04T08:17:46.212Z,3.97
2022-09-04T08:20:26.431Z,4.38
2022-09-04T08:25:30.151Z,3.95
2022-09-04T08:28:18.017Z,3.47
2022-09-04T08:30:55.966Z,3.80
2022-09-04T08:33:45.440Z,3.40
2022-09-04T08:36:23.001Z,3.00
2022-09-04T08:39:06.879Z,3.33
2022-09-04T08:41:59.067Z,3.35
2022-09-04T08:45:15.624Z,3.05
2022-09-04T08:48:23.707Z,3.00
2022-09-04T08:51:23.059Z,3.60
2022-09-04T08:54:18.773Z,3.03
2022-09-04T08:56:51.454Z,2.90
2022-09-04T08:59:45.877Z,3.22
2022-09-04T09:02:51.191Z,2.80
2022-09-04T09:05:49.857Z,3.10
2022-09-04T09:08:50.826Z,3.03
2022-09-04T09:11:38.502Z,2.72
2022-09-04T09:14:24.381Z,2.95
2022-09-04T09:17:03.240Z,2.95
2022-09-04T09:19:46.748Z,2.90
2022-09-04T09:22:37.375Z,2.95
2022-09-04T09:25:20.710Z,2.97
2022-09-04T09:28:26.544Z,3.20
2022-09-04T09:31:30.596Z,4.18
2022-09-04T09:34:38.077Z,3.28
2022-09-04T09:37:29.859Z,3.50
2022-09-04T09:40:32.965Z,3.78
2022-09-04T09:43:28.033Z,2.90
2022-09-04T09:46:15.506Z,3.35
2022-09-04T09:49:10.212Z,2.95
2022-09-04T09:52:07.805Z,3.45
2022-09-04T09:55:01.086Z,3.67
2022-09-04T09:57:50.113Z,2.80
2022-09-04T10:00:19.977Z,3.40
2022-09-04T10:03:17.071Z,3.05
2022-09-04T10:06:22.936Z,3.00
2022-09-04T10:09:11.614Z,2.90
2022-09-04T10:11:56.813Z,3.58
2022-09-04T10:14:55.996Z,2.88
2022-09-04T10:17:42.942Z,3.10
2022-09-04T10:20:48.161Z,2.92
2022-09-04T10:23:38.320Z,3.00
2022-09-04T10:26:35.895Z,3.25
2022-09-04T10:29:14.780Z,3.30
2022-09-04T10:31:58.843Z,3.40
2022-09-04T10:34:48.617Z,3.88
2022-09-04T10:37:28.919Z,3.55
2022-09-04T10:40:24.539Z,3.50
2022-09-04T10:43:09.906Z,3.45
2022-09-04T10:45:39.389Z,4.38
2022-09-04T10:48:38.162Z,4.82
2022-09-04T10:51:34.728Z,5.05
2022-09-04T10:54:22.618Z,4.70
2022-09-04T10:57:06.700Z,4.43
2022-09-04T11:00:08.288Z,5.80
2022-09-04T11:03:16.562Z,4.68
2022-09-04T11:06:39.888Z,3.17
2022-09-04T11:09:30.006Z,3.83
2022-09-04T11:12:44.018Z,4.78
2022-09-04T11:15:54.793Z,5.10
2022-09-04T11:19:00.116Z,4.72
2022-09-04T11:25:55.094Z,5.88
2022-09-04T11:29:03.492Z,5.50
2022-09-04T11:32:07.093Z,5.05
2022-09-04T11:35:14.617Z,5.68
2022-09-04T11:38:21.181Z,5.53
2022-09-04T11:41:29.019Z,5.93
2022-09-04T11:44:16.003Z,6.07
2022-09-04T11:47:23.810Z,7.18
2022-09-04T11:50:06.473Z,6.40
2022-09-04T11:53:17.827Z,6.45
2022-09-04T11:56:16.705Z,7.00
2022-09-04T11:59:15.044Z,6.75
2022-09-04T12:02:00.152Z,8.18
2022-09-04T12:04:50.661Z,7.10
2022-09-04T12:07:43.317Z,6.88
2022-09-04T12:16:24.498Z,7.25
2022-09-04T12:19:17.029Z,7.60
2022-09-04T12:22:13.018Z,7.80
2022-09-04T12:25:21.193Z,7.25
2022-09-04T12:28:17.850Z,6.90
2022-09-04T12:30:58.836Z,7.28
2022-09-04T12:33:42.852Z,6.80
2022-09-04T12:36:36.800Z,6.60
2022-09-04T12:48:53.677Z,6.50
2022-09-04T12:51:25.352Z,7.75
2022-09-04T12:54:04.949Z,7.70
2022-09-04T12:56:49.334Z,6.25
2022-09-04T12:59:32.151Z,7.13
2022-09-04T13:02:05.053Z,6.38
2022-09-04T13:04:42.682Z,6.25
2022-09-04T13:07:24.420Z,7.78
2022-09-04T13:12:29.581Z,6.97
2022-09-04T13:15:07.865Z,6.95
2022-09-04T13:17:44.379Z,8.35
2022-09-04T13:20:19.385Z,7.78
2022-09-04T13:22:58.998Z,6.28
2022-09-04T13:25:32.526Z,6.05
2022-09-04T13:28:08.039Z,5.10
2022-09-04T13:30:37.415Z,4.60
2022-09-04T13:33:24.096Z,4.47
2022-09-04T13:36:10.709Z,3.22
2022-09-04T13:39:00.036Z,2.85
2022-09-04T13:41:43.762Z,3.60
2022-09-04T13:44:40.982Z,3.22
2022-09-04T13:47:11.767Z,3.53
2022-09-04T13:49:43.547Z,3.03
2022-09-04T13:52:14.466Z,2.78
2022-09-04T13:54:47.571Z,3.60
2022-09-04T13:57:18.192Z,2.30
2022-09-04T13:59:50.266Z,3.20
2022-09-04T14:02:25.523Z,2.67
2022-09-04T14:04:56.916Z,3.60
2022-09-04T14:07:26.658Z,2.75
2022-09-04T14:09:58.342Z,2.95
2022-09-04T14:12:46.649Z,2.88
2022-09-04T14:15:41.267Z,2.60
2022-09-04T14:18:25.175Z,2.90
2022-09-04T14:21:00.965Z,2.85
2022-09-04T14:23:42.524Z,2.22
2022-09-04T14:26:21.134Z,2.40
2022-09-04T14:28:54.441Z,2.85
2022-09-04T14:31:27.565Z,2.70
2022-09-04T14:34:02.094Z,2.72
2022-09-04T14:36:37.624Z,2.45
2022-09-04T14:39:15.167Z,2.47
2022-09-04T14:42:02.330Z,2.85
2022-09-04T14:44:43.320Z,2.70
2022-09-04T14:47:17.128Z,2.90
2022-09-04T14:49:47.708Z,2.45
2022-09-04T14:52:19.838Z,3.10
2022-09-04T14:54:52.007Z,2.80
2022-09-04T14:57:25.292Z,3.55
2022-09-04T15:00:03.505Z,3.90
2022-09-04T15:02:35.436Z,2.90
2022-09-04T15:05:07.480Z,3.17
2022-09-04T15:07:55.014Z,3.55
2022-09-04T15:10:27.053Z,3.28
2022-09-04T15:13:12.308Z,3.63
2022-09-04T15:15:43.699Z,3.13
2022-09-04T15:18:16.512Z,2.88
2022-09-04T15:20:53.738Z,3.08
2022-09-04T15:23:28.931Z,4.10
2022-09-04T15:26:05.211Z,2.60
2022-09-04T15:28:40.203Z,3.15
2022-09-04T15:31:15.845Z,2.88
2022-09-04T15:33:46.874Z,2.78
2022-09-04T15:36:18.417Z,2.58
2022-09-04T15:38:50.772Z,2.78
2022-09-04T15:41:25.502Z,2.92
2022-09-04T15:44:00.264Z,2.70
2022-09-04T15:46:35.917Z,2.55
2022-09-04T15:49:16.005Z,2.80
2022-09-04T15:51:50.014Z,2.53
2022-09-04T15:54:28.917Z,2.50
2022-09-04T15:57:02.297Z,2.58
2022-09-04T15:59:43.816Z,3.10
2022-09-04T16:02:23.017Z,2.78
2022-09-04T16:05:03.944Z,3.10
2022-09-04T16:07:41.135Z,3.40
2022-09-04T16:10:15.350Z,2.50
2022-09-04T16:12:52.981Z,3.15
2022-09-04T16:15:27.219Z,2.90
2022-09-04T16:17:56.578Z,2.60
2022-09-04T16:20:33.415Z,2.90
2022-09-04T16:23:04.164Z,2.97
2022-09-04T16:25:34.143Z,2.58
2022-09-04T16:28:08.292Z,2.22
2022-09-04T16:30:41.715Z,2.63
2022-09-04T16:33:27.715Z,2.22
2022-09-04T16:36:00.875Z,2.70
2022-09-04T16:38:32.678Z,2.30
2022-09-04T16:41:06.175Z,2.30
2022-09-04T16:43:35.577Z,2.40
2022-09-04T16:46:14.206Z,2.53
2022-09-04T16:48:49.170Z,3.08
2022-09-04T16:51:40.085Z,3.17
2022-09-04T16:54:14.329Z,3.40
2022-09-04T16:56:49.912Z,3.45
2022-09-04T16:59:28.940Z,3.17
2022-09-04T17:02:03.885Z,2.92
2022-09-04T17:04:40.136Z,2.88
2022-09-04T17:07:15.243Z,3.30
2022-09-04T17:09:50.970Z,3.00
2022-09-04T17:12:26.466Z,3.55
2022-09-04T17:14:58.967Z,4.25
2022-09-04T17:17:32.149Z,3.25
2022-09-04T17:20:06.934Z,4.00
2022-09-04T17:29:02.239Z,3.50
2022-09-04T17:29:14.172Z,4.35
2022-09-04T17:29:14.374Z,4.45
2022-09-04T17:31:38.661Z,4.13
2022-09-04T17:40:37.881Z,4.20
2022-09-04T17:40:42.841Z,3.88
2022-09-04T17:40:52.234Z,4.20
2022-09-04T17:43:22.105Z,5.20
2022-09-04T17:45:57.301Z,5.32
2022-09-04T17:48:28.400Z,6.30
2022-09-04T17:53:34.424Z,6.07
2022-09-04T17:56:08.836Z,6.53
2022-09-04T17:58:41.494Z,5.90
2022-09-04T18:01:14.103Z,6.60
2022-09-04T18:04:19.735Z,6.47
2022-09-04T18:06:43.212Z,6.68
2022-09-04T18:09:26.398Z,7.47
2022-09-04T18:12:03.471Z,7.57
2022-09-04T18:14:37.535Z,7.00
2022-09-04T18:17:11.568Z,6.00
2022-09-04T18:19:45.522Z,7.28
2022-09-04T18:22:33.123Z,7.50
2022-09-04T18:25:16.260Z,7.53
2022-09-04T18:28:10.981Z,7.78
2022-09-04T18:37:12.806Z,7.90
2022-09-04T18:37:18.000Z,6.57
2022-09-04T18:37:24.548Z,9.35
2022-09-04T18:39:50.089Z,6.75
2022-09-04T18:50:32.732Z,7.15
2022-09-04T18:50:32.964Z,10.82
2022-09-04T18:50:40.930Z,8.68
2022-09-04T18:51:21.368Z,6.35
2022-09-04T18:53:52.866Z,5.97
2022-09-04T18:56:26.567Z,6.70
2022-09-04T18:58:59.603Z,6.40
2022-09-04T19:01:32.710Z,6.05
2022-09-04T19:04:27.927Z,6.18
2022-09-04T19:07:07.247Z,5.93
2022-09-04T19:10:03.204Z,6.63
2022-09-04T19:12:46.872Z,6.63
2022-09-04T19:15:50.351Z,6.95
2022-09-04T19:18:27.572Z,7.90
2022-09-04T19:21:06.368Z,6.93
2022-09-04T19:23:40.431Z,7.00
2022-09-04T19:26:16.049Z,8.23
2022-09-04T19:28:53.165Z,6.70
2022-09-04T19:31:30.058Z,6.97
2022-09-04T19:34:01.264Z,8.32
2022-09-04T19:36:36.498Z,8.35
2022-09-04T19:42:49.155Z,8.30
2022-09-04T19:46:03.257Z,9.77
2022-09-04T19:46:25.787Z,7.43
2022-09-04T19:48:20.931Z,7.65
2022-09-04T19:53:21.293Z,6.57
2022-09-04T19:53:51.761Z,7.93
2022-09-04T19:56:29.345Z,9.18
2022-09-04T19:59:01.578Z,7.50
2022-09-04T20:01:39.839Z,7.03
2022-09-04T20:04:12.258Z,6.60
2022-09-04T20:06:47.391Z,6.68
2022-09-04T20:09:20.414Z,7.13
2022-09-04T20:11:53.712Z,7.32
2022-09-04T20:14:25.762Z,7.18
2022-09-04T20:17:04.251Z,6.22
2022-09-04T20:19:38.872Z,7.47
2022-09-04T20:22:15.076Z,6.00
2022-09-04T20:25:01.508Z,7.22
2022-09-04T20:27:33.488Z,7.95
2022-09-04T20:30:07.646Z,7.57
2022-09-04T20:32:43.519Z,7.78
2022-09-04T20:35:33.097Z,7.15
2022-09-04T20:38:22.954Z,7.43
2022-09-04T20:40:55.533Z,6.97
2022-09-04T20:43:31.755Z,7.60
2022-09-04T20:52:44.209Z,7.75
2022-09-04T20:52:55.260Z,8.43
2022-09-04T20:52:56.430Z,7.45
2022-09-04T20:55:00.959Z,8.03
2022-09-04T21:03:12.592Z,8.63
2022-09-04T21:03:19.031Z,12.00
2022-09-04T21:03:35.017Z,11.10
2022-09-04T21:06:17.901Z,13.23
2022-09-04T21:08:51.644Z,12.82
2022-09-04T21:11:40.934Z,19.35
2022-09-04T21:14:15.773Z,13.07
2022-09-04T21:17:29.061Z,10.90
2022-09-04T21:20:17.791Z,11.48
2022-09-04T21:23:04.195Z,10.40
2022-09-04T21:25:40.788Z,10.60
2022-09-04T21:28:45.083Z,11.48
2022-09-04T21:31:20.113Z,11.35
2022-09-04T21:33:59.299Z,12.82
2022-09-04T21:36:34.265Z,12.27
2022-09-04T21:39:32.919Z,11.82
2022-09-04T21:42:19.108Z,9.95
2022-09-04T21:45:03.987Z,11.25
2022-09-04T21:47:44.814Z,11.80
2022-09-04T21:50:53.392Z,11.88
2022-09-04T21:53:42.096Z,11.90
2022-09-04T22:00:06.021Z,10.70
2022-09-04T22:02:41.527Z,11.55
2022-09-04T22:02:54.455Z,13.68
2022-09-04T22:05:31.580Z,13.82
2022-09-04T22:13:29.152Z,13.93
2022-09-04T22:13:45.995Z,14.60
2022-09-04T22:14:07.443Z,13.07
2022-09-04T22:16:52.587Z,12.35
2022-09-04T22:19:35.045Z,13.13
2022-09-04T22:22:16.256Z,14.13
2022-09-04T22:28:09.269Z,12.85
2022-09-04T22:30:52.916Z,12.77
2022-09-04T22:33:46.376Z,12.75
2022-09-04T22:37:11.176Z,12.23
2022-09-04T22:40:00.410Z,12.25
2022-09-04T22:42:43.217Z,11.65
2022-09-04T22:45:27.692Z,11.23
2022-09-04T22:48:14.227Z,11.32
2022-09-04T22:50:49.602Z,11.13
2022-09-04T22:54:08.529Z,11.48
2022-09-04T22:56:47.218Z,11.30
2022-09-04T22:59:50.113Z,10.68
2022-09-04T23:03:04.161Z,10.68
2022-09-04T23:05:41.071Z,10.93
2022-09-04T23:13:51.732Z,10.10
2022-09-04T23:13:54.054Z,10.45
2022-09-04T23:14:35.232Z,9.75
2022-09-04T23:17:34.435Z,10.60
2022-09-04T23:26:37.702Z,10.35
2022-09-04T23:26:50.176Z,12.02
2022-09-04T23:27:00.233Z,11.60
2022-09-04T23:30:02.356Z,9.95
2022-09-04T23:32:47.079Z,8.93
2022-09-04T23:35:41.748Z,9.38
2022-09-04T23:39:01.659Z,9.57
2022-09-04T23:42:03.248Z,8.57
2022-09-04T23:45:15.515Z,8.27
2022-09-04T23:48:33.325Z,8.32
2022-09-04T23:51:28.047Z,8.07
2022-09-04T23:54:49.192Z,7.95
2022-09-04T23:57:45.494Z,7.70
